Time;durP1;ratioP1;P1;durP2;ratioP2;P2;SDS_P1;SDS_P2;PMS_P1;PMS_P2;Temp;Humidity;BMP_temperature;BMP_pressure;BME280_temperature;BME280_humidity;BME280_pressure;Samples;Min_cycle;Max_cycle;Signal;HPM_P1;HPM_P2
2023/11/30 00:01:21;;;;;;;28.05;26.30;;;;;;;0.49;100.00;101090.13;4949102;28;20078;-82
2023/11/30 00:03:53;;;;;;;27.77;26.17;;;;;;;0.52;100.00;101090.69;4951343;28;20376;-81
2023/11/30 00:06:22;;;;;;;25.95;24.35;;;;;;;0.66;100.00;101092.09;4944018;28;20102;-81
2023/11/30 00:08:53;;;;;;;25.02;23.17;;;;;;;0.55;100.00;101092.22;4950954;29;20428;-81
2023/11/30 00:11:20;;;;;;;26.02;24.42;;;;;;;0.56;100.00;101091.25;4944442;29;20507;-81
2023/11/30 00:13:47;;;;;;;28.90;27.20;;;;;;;0.52;100.00;101095.91;4949131;29;20058;-82
2023/11/30 00:16:14;;;;;;;28.10;26.02;;;;;;;0.50;100.00;101094.38;4940801;28;20051;-76
2023/11/30 00:18:44;;;;;;;25.52;24.02;;;;;;;0.43;100.00;101102.75;4947169;28;20054;-82
2023/11/30 00:21:11;;;;;;;25.70;24.17;;;;;;;0.45;100.00;101119.13;4944854;29;20511;-82
2023/11/30 00:23:42;;;;;;;40.05;37.85;;;;;;;0.34;100.00;101121.81;4950178;28;20050;-81
2023/11/30 00:26:11;;;;;;;31.70;29.90;;;;;;;0.44;100.00;101108.78;4946082;28;20057;-81
2023/11/30 00:28:38;;;;;;;34.58;32.58;;;;;;;0.37;100.00;101111.09;4955695;28;20047;-81
2023/11/30 00:31:07;;;;;;;30.40;28.67;;;;;;;0.26;100.00;101107.75;4944913;29;20049;-82
2023/11/30 00:33:34;;;;;;;35.25;33.25;;;;;;;0.17;100.00;101120.59;4945625;28;20134;-81
2023/11/30 00:36:10;;;;;;;35.55;33.55;;;;;;;0.35;100.00;101128.69;4949147;28;20114;-82
2023/11/30 00:38:37;;;;;;;30.52;28.63;;;;;;;0.27;100.00;101136.34;4965141;28;20058;-81
2023/11/30 00:41:04;;;;;;;27.17;25.48;;;;;;;0.25;100.00;101134.84;4946858;29;20073;-81
2023/11/30 00:43:32;;;;;;;23.15;21.75;;;;;;;0.18;100.00;101132.72;4955163;28;20051;-82
2023/11/30 00:45:59;;;;;;;27.67;25.75;;;;;;;0.22;100.00;101135.91;4955555;28;20051;-80
2023/11/30 00:48:26;;;;;;;26.80;25.20;;;;;;;0.05;100.00;101134.69;4952598;28;20051;-81
2023/11/30 00:50:54;;;;;;;27.20;25.42;;;;;;;0.01;100.00;101140.31;4946216;28;20051;-81
2023/11/30 00:53:24;;;;;;;27.00;24.80;;;;;;;0.21;100.00;101142.06;4954325;28;20052;-81
2023/11/30 00:55:51;;;;;;;27.33;25.73;;;;;;;0.20;100.00;101153.50;4943054;29;20146;-81
2023/11/30 00:58:18;;;;;;;31.48;29.58;;;;;;;0.04;100.00;101153.13;4948345;28;20082;-81
2023/11/30 01:00:47;;;;;;;29.65;27.85;;;;;;;-0.17;100.00;101158.31;4953055;28;20070;-82
2023/11/30 01:03:14;;;;;;;27.25;25.45;;;;;;;-0.34;100.00;101144.84;4951824;28;20461;-76
2023/11/30 01:05:41;;;;;;;26.13;24.45;;;;;;;-0.41;100.00;101143.69;4950086;29;20142;-76
2023/11/30 01:08:12;;;;;;;29.63;27.85;;;;;;;-0.38;100.00;101147.84;4936699;28;20074;-76
2023/11/30 01:10:45;;;;;;;30.60;28.80;;;;;;;-0.56;100.00;101160.59;4952416;29;20517;-77
2023/11/30 01:13:13;;;;;;;29.48;27.67;;;;;;;-0.52;100.00;101165.41;4955412;28;20039;-76
2023/11/30 01:15:40;;;;;;;28.60;26.75;;;;;;;-0.40;100.00;101163.59;4950681;29;20739;-81
2023/11/30 01:18:08;;;;;;;31.10;29.27;;;;;;;-0.50;100.00;101160.91;4955415;28;20058;-81
2023/11/30 01:20:35;;;;;;;30.50;28.60;;;;;;;-0.59;100.00;101172.09;4956195;28;20542;-82
2023/11/30 01:23:02;;;;;;;28.17;26.08;;;;;;;-0.58;100.00;101165.91;4946550;28;20051;-81
2023/11/30 01:25:30;;;;;;;27.98;26.27;;;;;;;-1.01;100.00;101160.66;4953088;28;20134;-82
2023/11/30 01:27:57;;;;;;;29.90;27.92;;;;;;;-1.00;100.00;101157.09;4948068;29;20531;-82
2023/11/30 01:30:24;;;;;;;35.20;33.00;;;;;;;-1.30;100.00;101161.16;4948696;29;20061;-82
2023/11/30 01:32:51;;;;;;;37.75;35.35;;;;;;;-0.96;100.00;101182.00;4953681;29;20055;-82
2023/11/30 01:35:28;;;;;;;37.45;34.95;;;;;;;-1.35;100.00;101178.91;4941405;29;20240;-82
2023/11/30 01:37:56;;;;;;;37.17;34.78;;;;;;;-1.32;100.00;101172.63;4946013;29;20065;-82
2023/11/30 01:40:23;;;;;;;49.67;46.47;;;;;;;-1.40;100.00;101181.84;4959279;28;20051;-82
2023/11/30 01:42:50;;;;;;;50.67;47.47;;;;;;;-1.51;100.00;101174.03;4948259;29;20519;-82
2023/11/30 01:45:17;;;;;;;29.50;27.10;;;;;;;-1.48;100.00;101165.16;4949296;28;20550;-76
2023/11/30 01:47:47;;;;;;;25.40;23.50;;;;;;;-1.42;100.00;101180.34;4944997;28;20047;-76
2023/11/30 01:50:18;;;;;;;28.60;26.48;;;;;;;-1.42;100.00;101178.56;4952674;28;20082;-76
2023/11/30 01:52:47;;;;;;;25.70;23.80;;;;;;;-1.64;100.00;101186.31;4942488;29;20545;-76
2023/11/30 01:55:14;;;;;;;29.15;27.05;;;;;;;-1.68;100.00;101187.50;4945913;28;20072;-76
2023/11/30 01:57:42;;;;;;;24.70;22.90;;;;;;;-1.85;100.00;101193.94;4952952;28;20070;-76
2023/11/30 02:00:10;;;;;;;27.85;25.45;;;;;;;-1.90;100.00;101190.88;4949287;28;20058;-77
2023/11/30 02:02:39;;;;;;;29.35;27.25;;;;;;;-1.96;100.00;101196.53;4945210;28;20594;-76
2023/11/30 02:05:08;;;;;;;36.15;33.58;;;;;;;-1.88;100.00;101199.41;4952629;28;20051;-82
2023/11/30 02:07:35;;;;;;;23.30;21.80;;;;;;;-1.93;100.00;101204.97;4945939;29;20087;-82
2023/11/30 02:10:04;;;;;;;27.02;24.20;;;;;;;-2.18;100.00;101215.47;4947199;28;20435;-81
2023/11/30 02:12:31;;;;;;;24.08;22.38;;;;;;;-2.23;100.00;101204.59;4953666;28;20082;-81
2023/11/30 02:15:04;;;;;;;23.05;21.50;;;;;;;-2.14;100.00;101201.31;4951723;28;20443;-82
2023/11/30 02:17:31;;;;;;;25.13;23.33;;;;;;;-2.27;100.00;101213.53;4948715;29;20066;-81
2023/11/30 02:20:06;;;;;;;26.52;24.75;;;;;;;-2.22;100.00;101214.88;4952195;29;20049;-82
2023/11/30 02:22:34;;;;;;;26.73;24.95;;;;;;;-2.09;100.00;101222.63;4949687;29;20051;-81
2023/11/30 02:25:01;;;;;;;28.42;26.52;;;;;;;-2.31;100.00;101218.97;4946900;29;20055;-82
2023/11/30 02:27:28;;;;;;;26.38;24.58;;;;;;;-2.13;100.00;101219.41;4959456;28;20134;-82
2023/11/30 02:30:02;;;;;;;27.52;25.20;;;;;;;-2.29;100.00;101218.88;4944430;28;20047;-82
2023/11/30 02:32:29;;;;;;;26.90;24.90;;;;;;;-2.29;100.00;101213.66;4956623;28;20055;-82
2023/11/30 02:34:56;;;;;;;29.55;27.52;;;;;;;-2.55;100.00;101220.72;4951910;28;20055;-77
2023/11/30 02:37:23;;;;;;;29.30;27.30;;;;;;;-2.50;100.00;101221.22;4949272;29;20523;-77
2023/11/30 02:39:51;;;;;;;29.83;27.77;;;;;;;-2.31;100.00;101231.16;4948227;29;20049;-76
2023/11/30 02:42:20;;;;;;;31.88;29.48;;;;;;;-2.19;100.00;101227.66;4951351;28;20058;-76
2023/11/30 02:44:47;;;;;;;31.95;29.75;;;;;;;-2.27;100.00;101234.38;4946038;28;20055;-76
2023/11/30 02:47:18;;;;;;;28.77;26.88;;;;;;;-2.34;100.00;101229.59;4947823;28;20439;-76
2023/11/30 02:49:45;;;;;;;26.73;24.92;;;;;;;-2.28;100.00;101243.94;4952247;29;20098;-76
2023/11/30 02:52:12;;;;;;;28.48;26.77;;;;;;;-2.33;100.00;101241.69;4951079;28;20047;-76
2023/11/30 02:54:47;;;;;;;26.77;24.98;;;;;;;-2.32;100.00;101245.13;4948895;28;20051;-76
2023/11/30 02:57:15;;;;;;;31.63;29.40;;;;;;;-2.53;100.00;101248.28;4945197;28;20171;-76
2023/11/30 02:59:42;;;;;;;29.02;27.23;;;;;;;-2.74;100.00;101242.00;4935862;28;20051;-76
2023/11/30 03:02:09;;;;;;;29.02;26.95;;;;;;;-2.60;100.00;101236.66;4951985;28;20043;-76
2023/11/30 03:04:36;;;;;;;30.48;27.92;;;;;;;-2.37;100.00;101247.22;4950913;29;20058;-76
2023/11/30 03:07:06;;;;;;;32.47;30.35;;;;;;;-2.28;100.00;101249.16;4945864;29;20047;-76
2023/11/30 03:09:37;;;;;;;26.17;24.52;;;;;;;-2.53;100.00;101242.25;4948159;29;20055;-76
2023/11/30 03:12:08;;;;;;;35.38;32.00;;;;;;;-2.67;100.00;101252.78;4942305;28;20054;-76
2023/11/30 03:14:36;;;;;;;27.45;25.30;;;;;;;-2.67;100.00;101247.59;4948520;28;20047;-76
2023/11/30 03:17:08;;;;;;;28.92;26.48;;;;;;;-2.53;100.00;101248.28;4947722;28;20047;-76
2023/11/30 03:19:35;;;;;;;26.58;24.80;;;;;;;-2.64;100.00;101240.41;4947700;28;20495;-76
2023/11/30 03:22:02;;;;;;;28.10;26.08;;;;;;;-2.83;100.00;101240.88;4951744;29;20058;-77
2023/11/30 03:24:47;;;;;;;29.60;27.55;;;;;;;-2.78;100.00;101230.97;4948007;28;20047;-76
2023/11/30 03:27:15;;;;;;;27.02;25.13;;;;;;;-2.68;100.00;101233.75;4939042;29;20754;-77
2023/11/30 03:29:48;;;;;;;27.55;25.73;;;;;;;-2.78;100.00;101243.97;4953226;28;20058;-77
2023/11/30 03:32:16;;;;;;;24.08;22.52;;;;;;;-2.85;100.00;101242.72;4940568;28;20080;-82
2023/11/30 03:34:43;;;;;;;26.95;25.15;;;;;;;-3.03;100.00;101252.63;4952004;28;20129;-81
2023/11/30 03:37:11;;;;;;;26.75;25.15;;;;;;;-2.86;100.00;101255.84;4951188;28;20151;-77
2023/11/30 03:39:44;;;;;;;24.45;22.40;;;;;;;-2.64;100.00;101256.00;4946894;29;20144;-76
2023/11/30 03:42:11;;;;;;;22.15;20.73;;;;;;;-2.68;100.00;101253.75;4947877;29;20412;-76
2023/11/30 03:44:43;;;;;;;23.17;21.73;;;;;;;-2.63;100.00;101254.22;4946121;29;20047;-76
2023/11/30 03:47:11;;;;;;;24.60;23.00;;;;;;;-2.86;100.00;101251.47;4945797;28;20887;-76
2023/11/30 03:49:42;;;;;;;24.23;22.73;;;;;;;-2.78;100.00;101259.59;4946311;28;20052;-76
2023/11/30 03:52:09;;;;;;;21.13;19.83;;;;;;;-2.90;100.00;101249.22;4949225;28;20079;-76
2023/11/30 03:54:35;;;;;;;23.63;22.08;;;;;;;-3.07;100.00;101260.75;4937328;29;20141;-76
2023/11/30 03:57:02;;;;;;;24.00;22.50;;;;;;;-3.05;100.00;101253.69;4946637;29;20061;-76
2023/11/30 03:59:31;;;;;;;25.58;23.58;;;;;;;-3.07;100.00;101258.97;4948719;29;20102;-76
2023/11/30 04:01:58;;;;;;;22.35;20.98;;;;;;;-2.96;100.00;101260.84;4950484;28;20051;-82
2023/11/30 04:04:34;;;;;;;21.17;19.92;;;;;;;-3.00;100.00;101259.38;4950914;28;20050;-82
2023/11/30 04:07:01;;;;;;;21.27;19.98;;;;;;;-3.06;100.00;101271.03;4949194;29;20166;-82
2023/11/30 04:09:28;;;;;;;22.55;21.15;;;;;;;-2.98;100.00;101269.69;4947929;28;20062;-76
2023/11/30 04:11:58;;;;;;;22.50;21.10;;;;;;;-3.13;100.00;101268.97;4953445;29;20119;-76
2023/11/30 04:14:25;;;;;;;25.15;23.55;;;;;;;-3.13;100.00;101271.56;4953022;29;20062;-76
2023/11/30 04:16:52;;;;;;;23.02;21.23;;;;;;;-3.17;100.00;101283.09;4954514;28;20549;-76
2023/11/30 04:19:19;;;;;;;21.67;20.17;;;;;;;-3.13;100.00;101277.59;4952803;29;20048;-76
2023/11/30 04:21:47;;;;;;;22.48;20.98;;;;;;;-3.14;100.00;101282.91;4956883;28;20085;-76
2023/11/30 04:24:18;;;;;;;22.08;20.58;;;;;;;-3.32;100.00;101296.19;4955032;28;20046;-76
2023/11/30 04:26:48;;;;;;;21.70;20.07;;;;;;;-3.26;100.00;101290.56;4953412;28;20082;-76
2023/11/30 04:29:16;;;;;;;21.13;19.73;;;;;;;-3.50;100.00;101294.81;4948555;29;20050;-77
2023/11/30 04:31:43;;;;;;;21.10;19.80;;;;;;;-3.29;100.00;101293.38;4952869;29;20442;-76
2023/11/30 04:34:12;;;;;;;19.83;18.63;;;;;;;-3.11;100.00;101290.50;4949460;29;20047;-76
2023/11/30 04:36:39;;;;;;;21.95;20.55;;;;;;;-3.09;100.00;101288.59;4951533;29;20049;-77
2023/11/30 04:39:08;;;;;;;22.95;21.13;;;;;;;-3.13;100.00;101281.94;4950737;28;20635;-76
2023/11/30 04:41:35;;;;;;;20.63;19.42;;;;;;;-3.14;100.00;101288.94;4954422;28;20138;-76
2023/11/30 04:44:02;;;;;;;22.60;21.15;;;;;;;-3.01;100.00;101294.94;4954875;28;20046;-77
2023/11/30 04:46:29;;;;;;;23.10;21.50;;;;;;;-2.56;100.00;101294.50;4952033;28;20057;-76
2023/11/30 04:48:56;;;;;;;23.02;21.58;;;;;;;-2.34;100.00;101306.84;4910017;28;20149;-77
2023/11/30 04:51:23;;;;;;;24.85;23.25;;;;;;;-2.35;100.00;101311.22;4949698;28;20059;-76
2023/11/30 04:53:52;;;;;;;26.98;25.27;;;;;;;-2.89;100.00;101303.69;4954427;28;20483;-76
2023/11/30 04:56:20;;;;;;;28.17;25.80;;;;;;;-2.14;100.00;101319.28;4952337;29;20055;-76
2023/11/30 04:58:47;;;;;;;23.45;22.05;;;;;;;-2.58;100.00;101319.78;4949716;28;20044;-76
2023/11/30 05:01:14;;;;;;;25.45;24.05;;;;;;;-2.44;100.00;101317.06;4953795;28;20050;-76
2023/11/30 05:03:46;;;;;;;24.40;23.00;;;;;;;-2.36;100.00;101321.72;4953245;28;20493;-76
2023/11/30 05:06:13;;;;;;;26.65;25.35;;;;;;;-2.54;100.00;101321.25;4953201;28;20094;-77
2023/11/30 05:08:40;;;;;;;25.63;24.38;;;;;;;-2.79;100.00;101322.91;4949825;28;20058;-76
2023/11/30 05:11:07;;;;;;;25.85;24.25;;;;;;;-2.94;100.00;101325.72;4952060;29;20047;-76
2023/11/30 05:13:35;;;;;;;23.48;21.73;;;;;;;-2.88;100.00;101323.53;4951625;28;20539;-76
2023/11/30 05:16:02;;;;;;;20.13;18.80;;;;;;;-3.20;100.00;101323.13;4941872;28;20043;-76
2023/11/30 05:18:29;;;;;;;20.38;18.98;;;;;;;-3.03;100.00;101332.38;4947416;29;20051;-77
2023/11/30 05:21:11;;;;;;;21.85;19.92;;;;;;;-3.11;100.00;101332.06;4950034;28;20043;-76
2023/11/30 05:23:44;;;;;;;20.85;19.65;;;;;;;-3.24;100.00;101339.81;4953791;28;20059;-76
2023/11/30 05:26:11;;;;;;;22.45;20.80;;;;;;;-3.05;100.00;101340.28;4946757;28;20133;-76
2023/11/30 05:28:39;;;;;;;19.30;18.20;;;;;;;-2.99;100.00;101336.44;4953716;28;20055;-76
2023/11/30 05:31:07;;;;;;;19.55;18.45;;;;;;;-2.83;100.00;101349.25;4954740;28;20739;-81
2023/11/30 05:33:34;;;;;;;20.50;19.38;;;;;;;-2.75;100.00;101354.75;4945932;28;20505;-82
2023/11/30 05:36:06;;;;;;;20.73;19.55;;;;;;;-2.97;100.00;101354.53;4957296;28;20051;-82
2023/11/30 05:38:39;;;;;;;;;;;;;;;-2.83;100.00;101357.03;4954007;29;20063;-82
2023/11/30 05:41:07;;;;;;;22.90;21.02;;;;;;;-2.98;100.00;101358.91;4952121;28;20545;-82
2023/11/30 05:43:33;;;;;;;21.23;19.52;;;;;;;-2.82;100.00;101354.31;4953211;29;20503;-81
2023/11/30 05:46:05;;;;;;;19.20;18.30;;;;;;;-3.19;100.00;101363.75;4950178;29;20059;-82
2023/11/30 05:48:33;;;;;;;18.58;17.58;;;;;;;-3.09;100.00;101361.38;4938810;29;20063;-82
2023/11/30 05:51:00;;;;;;;18.73;17.83;;;;;;;-2.88;100.00;101361.72;4949391;28;20443;-82
2023/11/30 05:53:27;;;;;;;21.80;20.58;;;;;;;-2.69;100.00;101363.88;4948952;28;20051;-76
2023/11/30 05:56:19;;;;;;;21.92;20.52;;;;;;;-2.32;100.00;101377.81;4951154;28;20521;-76
2023/11/30 05:58:46;;;;;;;25.87;24.27;;;;;;;-2.18;100.00;101371.66;4945911;29;20106;-76
2023/11/30 06:01:16;;;;;;;25.42;23.08;;;;;;;-1.90;100.00;101373.97;4941029;29;20054;-77
2023/11/30 06:03:43;;;;;;;24.70;23.10;;;;;;;-1.63;100.00;101362.53;4948337;28;20043;-82
2023/11/30 06:06:10;;;;;;;31.70;29.02;;;;;;;-1.45;100.00;101369.00;4946951;28;20690;-83
2023/11/30 06:08:37;;;;;;;30.88;28.65;;;;;;;-1.01;100.00;101370.09;4949362;29;20060;-77
2023/11/30 06:11:08;;;;;;;31.35;29.27;;;;;;;-0.92;100.00;101360.75;4947651;28;20056;-84
2023/11/30 06:13:35;;;;;;;36.30;33.92;;;;;;;0.26;100.00;101366.41;4950747;28;20455;-83
2023/11/30 06:16:03;;;;;;;29.73;27.60;;;;;;;-0.54;100.00;101352.63;4951801;29;20051;-76
2023/11/30 06:18:33;;;;;;;33.60;30.92;;;;;;;-0.63;100.00;101368.16;4950616;29;20058;-77
2023/11/30 06:21:08;;;;;;;29.73;27.38;;;;;;;-0.72;100.00;101367.06;4949961;29;20047;-82
2023/11/30 06:23:35;;;;;;;31.95;29.42;;;;;;;-0.76;100.00;101365.63;4949009;28;20051;-82
2023/11/30 06:26:01;;;;;;;29.20;27.10;;;;;;;-0.62;100.00;101370.63;4952255;28;20043;-83
2023/11/30 06:28:29;;;;;;;30.75;28.15;;;;;;;-1.13;100.00;101378.00;4947591;28;20051;-81
2023/11/30 06:31:06;;;;;;;30.13;27.45;;;;;;;-0.84;100.00;101379.28;4945796;29;20054;-82
2023/11/30 06:33:35;;;;;;;27.88;26.02;;;;;;;-0.99;100.00;101383.84;4943517;28;20435;-83
2023/11/30 06:36:03;;;;;;;31.65;29.20;;;;;;;-0.65;100.00;101388.31;4952758;28;20505;-82
2023/11/30 06:38:31;;;;;;;33.00;30.55;;;;;;;-0.81;100.00;101393.88;4952533;28;20051;-82
2023/11/30 06:40:58;;;;;;;29.98;27.77;;;;;;;-0.22;100.00;101391.06;4946833;28;20043;-82
2023/11/30 06:43:26;;;;;;;33.75;31.10;;;;;;;0.34;100.00;101390.16;4951292;28;20047;-83
2023/11/30 06:45:54;;;;;;;32.72;29.88;;;;;;;0.69;100.00;101390.72;4943060;28;20055;-82
2023/11/30 06:48:24;;;;;;;34.00;31.45;;;;;;;1.38;100.00;101392.84;4948770;28;20066;-82
2023/11/30 06:50:54;;;;;;;30.38;28.17;;;;;;;1.64;100.00;101397.69;4952066;28;20134;-83
2023/11/30 06:53:22;;;;;;;28.92;27.13;;;;;;;2.50;100.00;101383.13;4947478;29;20047;-75
2023/11/30 06:55:49;;;;;;;32.95;30.80;;;;;;;2.65;100.00;101399.31;4943110;28;20574;-75
2023/11/30 06:58:17;;;;;;;31.85;29.75;;;;;;;2.68;100.00;101390.34;4947900;28;20073;-76
2023/11/30 07:00:45;;;;;;;32.78;29.90;;;;;;;2.50;100.00;101392.81;4951390;28;20059;-75
2023/11/30 07:03:12;;;;;;;31.60;29.38;;;;;;;3.41;100.00;101393.28;4949610;28;20122;-82
2023/11/30 07:05:39;;;;;;;37.03;34.00;;;;;;;3.85;100.00;101388.28;4944249;28;20051;-82
2023/11/30 07:08:08;;;;;;;32.63;30.42;;;;;;;3.66;100.00;101387.41;4949214;28;20562;-76
2023/11/30 07:10:57;;;;;;;33.78;31.05;;;;;;;4.13;100.00;101387.28;4943381;29;20538;-76
2023/11/30 07:13:25;;;;;;;34.58;32.17;;;;;;;4.73;100.00;101389.38;4949953;28;20058;-76
2023/11/30 07:15:51;;;;;;;32.55;30.55;;;;;;;4.18;100.00;101383.41;4952377;29;20503;-76
2023/11/30 07:18:19;;;;;;;33.72;31.33;;;;;;;4.80;100.00;101376.44;4950251;29;20810;-76
2023/11/30 07:20:47;;;;;;;35.20;32.53;;;;;;;4.95;100.00;101376.72;4947152;29;20491;-76
2023/11/30 07:23:18;;;;;;;34.00;31.60;;;;;;;5.28;100.00;101383.88;4934053;29;20061;-76
2023/11/30 07:25:47;;;;;;;33.55;31.25;;;;;;;5.09;100.00;101384.06;4946104;29;20079;-75
2023/11/30 07:28:14;;;;;;;33.53;31.08;;;;;;;4.95;100.00;101389.88;4952941;28;20089;-76
2023/11/30 07:30:42;;;;;;;35.83;33.38;;;;;;;5.89;100.00;101389.13;4950847;29;20047;-76
2023/11/30 07:33:09;;;;;;;40.80;37.58;;;;;;;5.89;100.00;101387.31;4951440;28;20171;-76
2023/11/30 07:35:37;;;;;;;37.05;34.35;;;;;;;5.66;100.00;101375.69;4951433;28;20047;-76
2023/11/30 07:38:05;;;;;;;32.40;30.40;;;;;;;5.92;100.00;101379.09;4951675;29;20427;-76
2023/11/30 07:40:35;;;;;;;27.65;26.00;;;;;;;5.76;100.00;101386.13;4934258;29;20055;-76
2023/11/30 07:43:01;;;;;;;25.63;24.20;;;;;;;5.55;100.00;101384.69;4946080;28;20442;-76
2023/11/30 07:45:35;;;;;;;26.90;25.08;;;;;;;5.55;100.00;101384.69;4948542;28;20051;-76
2023/11/30 07:48:06;;;;;;;22.92;21.63;;;;;;;5.18;100.00;101374.44;4948374;28;20043;-76
2023/11/30 07:50:33;;;;;;;26.85;24.88;;;;;;;6.48;100.00;101381.25;4944219;29;20527;-76
2023/11/30 07:53:03;;;;;;;26.58;24.70;;;;;;;7.42;100.00;101379.91;4945432;29;20125;-76
2023/11/30 07:55:33;;;;;;;27.00;25.30;;;;;;;6.97;100.00;101390.03;4950506;29;20550;-76
2023/11/30 07:58:07;;;;;;;22.42;20.92;;;;;;;7.34;100.00;101389.47;4940807;28;20146;-77
2023/11/30 08:00:34;;;;;;;23.35;22.02;;;;;;;7.03;100.00;101389.34;4948497;28;20443;-83
2023/11/30 08:03:02;;;;;;;24.75;23.35;;;;;;;7.23;100.00;101383.72;4949855;28;20059;-82
2023/11/30 08:05:29;;;;;;;24.65;23.25;;;;;;;7.33;100.00;101371.97;4951101;28;20047;-82
2023/11/30 08:08:05;;;;;;;22.95;21.60;;;;;;;7.77;100.00;101373.31;4951940;28;20051;-84
2023/11/30 08:10:33;;;;;;;25.25;23.85;;;;;;;7.67;100.00;101372.72;4949490;28;20500;-83
2023/11/30 08:13:00;;;;;;;23.27;21.88;;;;;;;8.09;100.00;101366.25;4950801;28;20051;-83
2023/11/30 08:15:36;;;;;;;22.88;21.48;;;;;;;8.54;100.00;101365.50;4951652;28;20130;-83
2023/11/30 08:18:03;;;;;;;24.95;23.55;;;;;;;7.85;100.00;101375.13;4947922;28;20051;-83
2023/11/30 08:20:30;;;;;;;23.45;22.05;;;;;;;9.68;100.00;101376.00;4948198;29;20155;-83
2023/11/30 08:22:57;;;;;;;23.70;22.30;;;;;;;8.97;100.00;101368.47;4951771;29;20075;-76
2023/11/30 08:25:28;;;;;;;23.45;21.80;;;;;;;9.21;100.00;101362.13;4951698;28;20055;-77
2023/11/30 08:27:55;;;;;;;24.02;22.42;;;;;;;10.18;100.00;101361.94;4951653;28;20107;-76
2023/11/30 08:30:29;;;;;;;21.20;19.80;;;;;;;9.13;100.00;101356.88;4950694;28;20055;-76
2023/11/30 08:33:01;;;;;;;21.58;20.27;;;;;;;10.02;100.00;101360.34;4954317;28;20055;-77
2023/11/30 08:35:28;;;;;;;21.45;20.05;;;;;;;9.70;100.00;101364.22;4949255;28;20649;-84
2023/11/30 08:37:55;;;;;;;22.95;21.15;;;;;;;9.34;100.00;101359.66;4953121;28;20435;-85
2023/11/30 08:40:24;;;;;;;21.45;20.05;;;;;;;10.03;100.00;101361.16;4949547;28;20055;-84
2023/11/30 08:42:53;;;;;;;21.08;19.67;;;;;;;10.57;100.00;101349.31;4942611;29;20052;-85
2023/11/30 08:45:19;;;;;;;23.25;21.83;;;;;;;10.76;100.00;101338.00;4949120;29;20055;-83
2023/11/30 08:47:47;;;;;;;23.85;22.42;;;;;;;11.02;100.00;101329.44;4951385;28;20443;-84
2023/11/30 08:50:16;;;;;;;28.98;27.23;;;;;;;10.31;100.00;101330.25;4941528;29;20058;-85
2023/11/30 08:52:44;;;;;;;20.70;19.30;;;;;;;10.53;100.00;101335.59;4940860;28;20059;-77
2023/11/30 08:55:11;;;;;;;21.13;19.70;;;;;;;10.69;100.00;101323.88;4947225;28;20178;-85
2023/11/30 08:57:39;;;;;;;21.33;19.92;;;;;;;10.11;100.00;101328.38;4949682;28;20054;-85
2023/11/30 09:00:11;;;;;;;33.10;31.30;;;;;;;11.14;100.00;101327.06;4942620;29;20141;-84
2023/11/30 09:02:46;;;;;;;;;;;;;;;11.87;100.00;101319.47;4955956;28;20142;-85
2023/11/30 09:05:18;;;;;;;22.00;20.70;;;;;;;12.52;100.00;101320.63;4937439;29;19922;-77
2023/11/30 09:07:46;;;;;;;23.83;22.42;;;;;;;12.00;100.00;101318.69;4941551;29;20590;-86
2023/11/30 09:10:13;;;;;;;24.40;22.90;;;;;;;12.43;100.00;101326.34;4946825;28;20559;-85
2023/11/30 09:12:41;;;;;;;22.13;20.63;;;;;;;11.52;100.00;101321.31;4955866;28;20055;-86
2023/11/30 09:15:10;;;;;;;22.70;21.23;;;;;;;11.94;100.00;101320.31;4955810;28;20047;-85
2023/11/30 09:17:37;;;;;;;20.52;19.13;;;;;;;13.98;100.00;101308.84;4951776;28;20066;-86
2023/11/30 09:20:19;;;;;;;20.75;19.40;;;;;;;12.41;100.00;101307.09;4943988;29;20047;-86
2023/11/30 09:22:47;;;;;;;21.10;19.80;;;;;;;13.03;100.00;101297.84;4948142;29;20484;-85
2023/11/30 09:25:14;;;;;;;22.90;21.20;;;;;;;13.45;100.00;101291.19;4943849;28;20106;-77
2023/11/30 09:27:42;;;;;;;24.05;22.55;;;;;;;13.58;100.00;101279.63;4939159;29;20047;-77
2023/11/30 09:30:11;;;;;;;23.85;22.35;;;;;;;13.65;100.00;101280.44;4951387;29;20074;-77
2023/11/30 09:32:41;;;;;;;22.13;20.63;;;;;;;12.40;100.00;101290.28;4951463;28;20542;-77
2023/11/30 09:35:08;;;;;;;24.30;22.58;;;;;;;13.44;100.00;101275.41;4953144;28;20082;-77
2023/11/30 09:37:37;;;;;;;21.30;20.00;;;;;;;13.60;100.00;101274.09;4954683;28;20090;-77
2023/11/30 09:40:06;;;;;;;21.98;20.48;;;;;;;13.47;100.00;101272.31;4950810;28;20070;-77
2023/11/30 09:42:33;;;;;;;20.80;19.45;;;;;;;14.37;100.00;101273.03;4948576;29;20408;-77
2023/11/30 09:45:01;;;;;;;22.55;20.95;;;;;;;13.71;100.00;101270.78;4950816;29;20043;-77
2023/11/30 09:47:32;;;;;;;22.83;21.30;;;;;;;12.89;100.00;101264.22;4950761;28;20439;-77
2023/11/30 09:50:00;;;;;;;22.27;20.77;;;;;;;12.18;100.00;101259.53;4950371;29;20051;-84
2023/11/30 09:52:27;;;;;;;22.10;20.70;;;;;;;13.42;98.24;101248.91;4953136;29;20495;-85
2023/11/30 09:54:57;;;;;;;22.40;21.00;;;;;;;11.72;100.00;101245.06;4953058;28;20058;-85
2023/11/30 09:57:36;;;;;;;22.35;20.85;;;;;;;12.14;100.00;101243.97;4953111;28;20052;-85
2023/11/30 10:00:05;;;;;;;21.95;20.35;;;;;;;13.77;100.00;101237.03;4941931;29;20055;-84
2023/11/30 10:02:52;;;;;;;23.48;21.88;;;;;;;12.44;100.00;101235.59;4952071;28;20136;-84
2023/11/30 10:05:20;;;;;;;24.70;22.88;;;;;;;12.31;100.00;101223.06;4954658;28;20142;-78
2023/11/30 10:07:47;;;;;;;21.70;20.17;;;;;;;11.25;100.00;101228.13;4944557;28;20052;-77
2023/11/30 10:10:17;;;;;;;20.40;19.00;;;;;;;11.53;100.00;101214.75;4949026;28;20063;-85
2023/11/30 10:12:45;;;;;;;22.92;21.42;;;;;;;11.64;100.00;101218.66;4940465;29;20586;-84
2023/11/30 10:15:12;;;;;;;20.83;19.42;;;;;;;11.94;100.00;101215.66;4945273;28;20056;-84
2023/11/30 10:17:41;;;;;;;20.73;19.42;;;;;;;11.02;100.00;101217.78;4944833;28;20059;-77
2023/11/30 10:20:12;;;;;;;22.88;21.38;;;;;;;10.51;100.00;101221.56;4948636;28;20043;-84
2023/11/30 10:22:46;;;;;;;24.65;23.05;;;;;;;10.71;100.00;101220.84;4953942;28;20055;-85
2023/11/30 10:25:15;;;;;;;25.85;24.15;;;;;;;11.19;100.00;101216.41;4954313;28;20641;-84
2023/11/30 10:27:44;;;;;;;23.90;22.30;;;;;;;12.01;100.00;101211.16;4954234;28;20490;-85
2023/11/30 10:30:51;;;;;;;21.73;20.13;;;;;;;12.17;100.00;101207.31;4950631;28;20051;-85
2023/11/30 10:33:49;;;;;;;24.38;22.88;;;;;;;12.65;100.00;101194.56;4951290;29;20055;-83
2023/11/30 10:36:19;;;;;;;24.27;22.48;;;;;;;13.15;100.00;101178.81;4936193;29;20055;-85
2023/11/30 10:38:53;;;;;;;23.05;21.45;;;;;;;12.76;100.00;101180.59;4948105;29;20059;-85
2023/11/30 10:41:26;;;;;;;26.05;24.25;;;;;;;12.22;100.00;101189.66;4949999;28;20039;-84
2023/11/30 10:43:58;;;;;;;24.95;23.25;;;;;;;13.77;96.03;101175.63;4951456;28;20047;-84
2023/11/30 10:46:26;;;;;;;24.73;23.13;;;;;;;13.11;95.12;101169.63;4941103;29;20441;-84
2023/11/30 10:48:56;;;;;;;24.60;23.00;;;;;;;13.44;98.03;101158.81;4940155;28;20055;-85
2023/11/30 10:51:31;;;;;;;23.60;22.10;;;;;;;12.73;98.84;101149.03;4945589;29;20043;-84
2023/11/30 10:54:05;;;;;;;24.67;23.08;;;;;;;12.75;94.64;101159.47;4947662;29;20055;-84
2023/11/30 10:56:34;;;;;;;23.70;22.20;;;;;;;12.87;90.47;101162.31;4948070;28;20557;-83
2023/11/30 10:59:01;;;;;;;24.25;22.45;;;;;;;12.95;91.30;101170.91;4952569;29;20047;-82
2023/11/30 11:01:34;;;;;;;25.23;23.42;;;;;;;12.98;93.33;101180.31;4949155;29;20443;-84
2023/11/30 11:04:06;;;;;;;25.92;24.13;;;;;;;13.32;96.56;101181.06;4951599;28;20047;-84
2023/11/30 11:06:34;;;;;;;25.70;24.05;;;;;;;11.92;85.67;101178.59;4949642;28;20052;-77
2023/11/30 11:09:24;;;;;;;25.88;24.27;;;;;;;11.73;94.98;101174.03;4951563;29;20484;-77
2023/11/30 11:12:02;;;;;;;24.20;22.70;;;;;;;13.25;89.02;101173.06;4952654;28;20047;-77
2023/11/30 11:15:06;;;;;;;25.67;24.08;;;;;;;12.86;81.84;101161.50;4949460;28;20416;-77